Time;durP1;ratioP1;P1;durP2;ratioP2;P2;SDS_P1;SDS_P2;PMS_P1;PMS_P2;Temp;Humidity;BMP_temperature;BMP_pressure;BME280_temperature;BME280_humidity;BME280_pressure;Samples;Min_cycle;Max_cycle;Signal;HPM_P1;HPM_P2
2022/06/24 00:02:50;;;;;;;4.53;2.28;;;;;;;19.52;74.16;100680.28;10228252;28;20038;-84
2022/06/24 00:07:52;;;;;;;5.45;2.80;;;;;;;19.45;74.83;100668.75;10270724;28;20145;-85
2022/06/24 00:12:53;;;;;;;6.30;2.42;;;;;;;19.18;75.46;100629.81;10229533;28;20127;-84
2022/06/24 00:17:54;;;;;;;2.97;2.47;;;;;;;19.12;75.34;100623.53;10240074;28;20069;-85
2022/06/24 00:22:55;;;;;;;4.85;2.78;;;;;;;19.07;74.90;100618.91;10287428;28;20035;-85
2022/06/24 00:28:15;;;;;;;4.88;2.75;;;;;;;19.27;76.64;100665.03;10265431;28;20090;-84
2022/06/24 00:33:20;;;;;;;3.90;2.55;;;;;;;18.87;76.32;100605.47;10271520;28;20074;-85
2022/06/24 00:38:34;;;;;;;6.63;2.63;;;;;;;18.91;77.02;100606.50;10238557;28;20035;-85
2022/06/24 00:43:39;;;;;;;4.90;2.60;;;;;;;19.05;78.53;100632.38;10267134;28;20068;-83
2022/06/24 00:48:43;;;;;;;4.00;2.88;;;;;;;18.91;79.13;100615.72;10243748;28;20091;-85
2022/06/24 00:53:49;;;;;;;5.88;2.55;;;;;;;18.86;78.19;100624.19;10281447;28;20054;-85
2022/06/24 00:59:03;;;;;;;3.90;2.53;;;;;;;18.65;77.73;100593.16;10252527;28;20061;-86
2022/06/24 01:04:06;;;;;;;6.68;2.55;;;;;;;18.30;78.23;100534.31;10247558;28;20415;-85
2022/06/24 01:09:08;;;;;;;3.90;3.40;;;;;;;18.71;78.25;100600.25;10277377;28;20586;-84
2022/06/24 01:14:09;;;;;;;3.88;3.03;;;;;;;18.16;78.50;100519.63;10266417;28;20046;-85
2022/06/24 01:19:12;;;;;;;5.78;3.30;;;;;;;18.48;79.86;100567.91;10278864;28;20027;-85
2022/06/24 01:24:34;;;;;;;4.32;2.42;;;;;;;18.58;79.93;100584.38;10273241;28;20068;-84
2022/06/24 01:29:35;;;;;;;5.88;3.00;;;;;;;18.60;80.09;100575.72;10290914;28;20046;-84
2022/06/24 01:34:37;;;;;;;8.27;4.60;;;;;;;18.32;78.21;100517.31;10266113;28;20039;-85
2022/06/24 01:39:44;;;;;;;8.77;3.97;;;;;;;18.47;78.66;100527.25;10276166;28;20041;-86
2022/06/24 01:44:45;;;;;;;5.88;4.00;;;;;;;18.53;78.98;100520.41;10214852;28;1524461;-84
2022/06/24 01:49:49;;;;;;;9.45;3.55;;;;;;;18.54;77.35;100505.31;10283667;28;20320;-85
2022/06/24 01:54:49;;;;;;;7.00;3.97;;;;;;;18.57;78.20;100501.91;10270568;28;20073;-84
2022/06/24 01:59:59;;;;;;;5.35;3.47;;;;;;;18.38;78.60;100470.63;10268554;28;20106;-85
2022/06/24 02:05:05;;;;;;;5.82;3.60;;;;;;;18.40;77.80;100459.97;10293970;28;20034;-85
2022/06/24 02:15:26;;;;;;;6.53;3.70;;;;;;;18.54;78.15;100471.88;10256336;28;20038;-85
2022/06/24 02:20:27;;;;;;;12.00;4.82;;;;;;;18.63;78.33;100483.91;10224026;28;20068;-84
2022/06/24 02:25:28;;;;;;;8.25;3.83;;;;;;;18.44;78.28;100460.97;10261084;28;21541;-84
2022/06/24 02:30:28;;;;;;;8.95;4.43;;;;;;;18.48;79.30;100468.41;10275709;28;20031;-85
2022/06/24 02:35:29;;;;;;;13.63;4.68;;;;;;;18.17;80.56;100423.75;10264721;28;20065;-85
2022/06/24 02:40:45;;;;;;;6.03;4.10;;;;;;;18.19;80.06;100438.19;10234425;28;20038;-84
2022/06/24 02:45:52;;;;;;;10.90;4.43;;;;;;;17.98;81.19;100417.53;10282907;28;20035;-85
2022/06/24 02:50:59;;;;;;;7.43;4.80;;;;;;;18.32;81.49;100476.31;10266610;28;20039;-85
2022/06/24 02:56:03;;;;;;;8.23;4.63;;;;;;;18.12;82.99;100457.31;10240326;28;20342;-85
2022/06/24 03:01:04;;;;;;;7.97;4.72;;;;;;;18.18;84.21;100475.53;10215822;28;20289;-85
2022/06/24 03:06:07;;;;;;;5.65;3.90;;;;;;;18.00;86.27;100454.25;10251075;28;20035;-84
2022/06/24 03:11:09;;;;;;;8.50;4.85;;;;;;;17.94;88.92;100473.03;10242215;28;20037;-84
2022/06/24 03:16:10;;;;;;;9.43;5.20;;;;;;;17.57;89.92;100410.94;10221544;28;20050;-85
2022/06/24 03:21:12;;;;;;;8.50;4.93;;;;;;;17.57;92.12;100404.53;10237977;28;20027;-85
2022/06/24 03:26:12;;;;;;;8.00;3.65;;;;;;;17.86;91.08;100437.56;10253793;28;20541;-84
2022/06/24 03:31:15;;;;;;;8.82;4.70;;;;;;;17.99;91.07;100450.66;10244190;28;20031;-85
2022/06/24 03:36:15;;;;;;;7.38;3.85;;;;;;;18.17;90.58;100445.22;10266906;28;20039;-85
2022/06/24 03:41:16;;;;;;;4.68;2.65;;;;;;;18.32;88.73;100437.31;10305152;28;20525;-85
2022/06/24 03:46:18;;;;;;;5.43;2.78;;;;;;;18.33;87.88;100427.81;10260874;28;20039;-86
2022/06/24 03:51:20;;;;;;;4.32;2.75;;;;;;;18.53;89.63;100439.56;10264857;28;20035;-85
2022/06/24 03:56:23;;;;;;;3.03;2.33;;;;;;;18.38;89.43;100423.25;10262728;28;20035;-85
2022/06/24 04:01:32;;;;;;;4.97;3.00;;;;;;;18.33;90.05;100416.66;10239683;28;20070;-85
2022/06/24 04:06:33;;;;;;;4.63;3.50;;;;;;;17.69;94.05;100324.06;10275828;28;20046;-84
2022/06/24 04:11:33;;;;;;;4.22;3.05;;;;;;;17.75;97.94;100357.03;10303783;28;20043;-84
2022/06/24 04:16:34;;;;;;;6.88;3.17;;;;;;;17.88;100.00;100383.25;10304405;28;20035;-85
2022/06/24 04:21:35;;;;;;;4.18;3.65;;;;;;;18.03;100.00;100418.25;10271352;28;20523;-86
2022/06/24 04:26:37;;;;;;;6.43;3.42;;;;;;;17.75;100.00;100373.75;10276327;28;20038;-86
2022/06/24 04:31:39;;;;;;;6.53;3.72;;;;;;;17.94;100.00;100420.97;10281743;28;20039;-86
2022/06/24 04:36:40;;;;;;;5.40;3.38;;;;;;;18.28;100.00;100450.22;10257165;28;20123;-86
2022/06/24 04:41:41;;;;;;;7.07;3.25;;;;;;;18.21;100.00;100441.50;10297495;28;20103;-86
2022/06/24 04:46:41;;;;;;;3.40;2.90;;;;;;;18.43;100.00;100448.19;10215595;28;20038;-84
2022/06/24 04:51:43;;;;;;;6.05;3.25;;;;;;;18.62;100.00;100428.47;10270035;28;20053;-85
2022/06/24 04:56:45;;;;;;;5.10;3.28;;;;;;;18.81;100.00;100414.31;10263480;28;20031;-85
2022/06/24 05:01:46;;;;;;;3.75;2.95;;;;;;;19.10;100.00;100405.41;10242257;28;20042;-86
2022/06/24 05:06:49;;;;;;;4.22;3.25;;;;;;;19.34;95.02;100382.66;10289319;28;20042;-85
2022/06/24 05:11:50;;;;;;;6.03;3.20;;;;;;;19.52;92.62;100400.25;10284967;28;20046;-85
2022/06/24 05:16:52;;;;;;;5.18;3.08;;;;;;;19.65;93.40;100388.09;10248467;28;20038;-85
2022/06/24 05:21:53;;;;;;;5.32;3.03;;;;;;;19.40;93.82;100353.44;10267351;28;20027;-86
2022/06/24 05:26:54;;;;;;;5.78;3.55;;;;;;;19.66;96.17;100411.28;10215776;28;20094;-84
2022/06/24 05:31:55;;;;;;;6.40;4.13;;;;;;;19.64;96.27;100391.25;10195904;28;20900;-85
2022/06/24 05:36:56;;;;;;;9.88;3.92;;;;;;;19.53;99.85;100387.94;10203316;28;20065;-85
2022/06/24 05:41:58;;;;;;;5.78;3.45;;;;;;;19.40;100.00;100361.81;10246389;28;20039;-85
2022/06/24 05:46:59;;;;;;;8.40;4.00;;;;;;;19.86;100.00;100381.91;10270270;28;20403;-85
2022/06/24 05:52:00;;;;;;;4.90;4.15;;;;;;;20.01;97.12;100388.97;10264800;28;20106;-84
2022/06/24 05:57:00;;;;;;;6.45;4.35;;;;;;;20.00;98.32;100440.41;10285315;28;20055;-85
2022/06/24 06:02:01;;;;;;;15.38;6.75;;;;;;;19.53;100.00;100497.66;10278700;28;20600;-83
2022/06/24 06:07:02;;;;;;;27.38;10.50;;;;;;;18.40;100.00;100596.53;10258701;28;20050;-86
2022/06/24 06:12:03;;;;;;;21.67;11.10;;;;;;;16.77;100.00;100529.88;10240015;28;20070;-88
2022/06/24 06:17:04;;;;;;;16.80;11.70;;;;;;;16.27;100.00;100513.72;10256314;28;20081;-86
2022/06/24 06:22:04;;;;;;;18.65;12.77;;;;;;;16.20;100.00;100552.16;10288575;28;20039;-87
2022/06/24 06:27:05;;;;;;;16.88;13.20;;;;;;;15.86;100.00;100483.78;10235818;28;20043;-91
2022/06/24 06:32:06;;;;;;;20.38;14.48;;;;;;;14.86;100.00;100270.19;10147358;23;20136;-86
2022/06/24 06:37:06;;;;;;;17.67;14.68;;;;;;;16.06;100.00;100466.00;10090924;29;20035;-87
2022/06/24 06:42:07;;;;;;;20.33;15.75;;;;;;;15.41;100.00;100302.13;10106670;29;20036;-86
2022/06/24 06:47:07;;;;;;;21.00;17.20;;;;;;;16.53;100.00;100454.94;10090106;29;20025;-86
2022/06/24 06:52:08;;;;;;;21.73;16.00;;;;;;;15.92;100.00;100382.63;10105666;29;20051;-86
2022/06/24 06:57:08;;;;;;;25.75;17.00;;;;;;;15.50;100.00;100306.69;10136490;29;20466;-87
2022/06/24 07:02:09;;;;;;;24.80;17.83;;;;;;;15.44;100.00;100274.59;10127648;29;20539;-86
2022/06/24 07:07:09;;;;;;;28.40;22.90;;;;;;;17.20;100.00;100526.06;10112947;29;20037;-85
2022/06/24 07:12:10;;;;;;;34.58;27.88;;;;;;;16.87;100.00;100387.09;10126020;29;20049;-85
2022/06/24 07:17:11;;;;;;;40.40;27.85;;;;;;;17.66;100.00;100430.50;10118224;29;20488;-86
2022/06/24 07:22:11;;;;;;;30.23;26.73;;;;;;;17.99;100.00;100408.06;10113390;29;20025;-87
2022/06/24 07:27:12;;;;;;;33.55;26.33;;;;;;;17.84;100.00;100359.94;10110174;29;20040;-87
2022/06/24 07:32:15;;;;;;;33.53;28.98;;;;;;;18.02;100.00;100343.34;10137591;29;20059;-87
2022/06/24 07:37:15;;;;;;;31.98;27.02;;;;;;;19.18;100.00;100512.63;10138116;29;20272;-88
2022/06/24 07:42:16;;;;;;;38.20;26.48;;;;;;;17.92;100.00;100356.41;10136299;29;20472;-88
2022/06/24 07:47:17;;;;;;;31.83;24.10;;;;;;;18.41;100.00;100417.03;10132888;29;20115;-87
2022/06/24 07:52:17;;;;;;;31.45;26.23;;;;;;;18.17;100.00;100362.47;10141789;29;20139;-88
2022/06/24 07:57:18;;;;;;;46.90;30.00;;;;;;;19.00;100.00;100423.28;10125437;29;20046;-87
2022/06/24 08:02:18;;;;;;;33.50;24.40;;;;;;;18.87;100.00;100309.84;10121147;29;20068;-87
2022/06/24 08:07:19;;;;;;;27.05;20.98;;;;;;;18.58;100.00;100204.44;10156081;29;20028;-87
2022/06/24 08:12:19;;;;;;;26.23;20.33;;;;;;;19.59;100.00;100366.25;10160006;29;20377;-86
2022/06/24 08:17:20;;;;;;;28.95;18.48;;;;;;;19.52;100.00;100336.88;10131057;29;20040;-86
2022/06/24 08:22:21;;;;;;;22.42;16.95;;;;;;;19.42;100.00;100267.41;10129592;29;20480;-88
2022/06/24 08:27:21;;;;;;;20.05;16.08;;;;;;;19.61;100.00;100316.50;10131186;29;20039;-86
2022/06/24 08:32:22;;;;;;;16.10;13.35;;;;;;;19.78;100.00;100380.75;10133761;29;20090;-86
2022/06/24 08:37:22;;;;;;;20.00;15.77;;;;;;;19.61;100.00;100361.19;10157375;29;20040;-86
2022/06/24 08:42:23;;;;;;;22.13;16.25;;;;;;;19.80;100.00;100389.63;10157746;29;20136;-86
2022/06/24 08:47:23;;;;;;;21.55;15.65;;;;;;;19.50;100.00;100325.19;10126229;29;20111;-86
2022/06/24 08:52:24;;;;;;;22.90;14.82;;;;;;;19.46;100.00;100248.84;10124627;29;20139;-86
2022/06/24 08:57:24;;;;;;;19.77;14.38;;;;;;;19.82;100.00;100303.53;10121507;29;20444;-86
2022/06/24 09:02:25;;;;;;;17.85;14.73;;;;;;;19.31;100.00;100289.25;10143556;29;20490;-86
2022/06/24 09:07:26;;;;;;;19.67;15.07;;;;;;;20.13;100.00;100464.56;10158821;29;20051;-86
2022/06/24 09:12:36;;;;;;;20.45;14.63;;;;;;;18.83;100.00;100286.53;10159476;29;20540;-86
2022/06/24 09:17:37;;;;;;;18.88;15.70;;;;;;;19.06;100.00;100315.97;10126409;28;20036;-86
2022/06/24 09:22:38;;;;;;;22.27;15.30;;;;;;;19.36;100.00;100380.34;10126665;29;20024;-87
2022/06/24 09:27:45;;;;;;;18.48;16.45;;;;;;;19.88;100.00;100458.63;10146734;28;20115;-86
2022/06/24 09:32:54;;;;;;;20.42;15.73;;;;;;;19.70;100.00;100423.44;10144242;28;20044;-86
2022/06/24 09:37:55;;;;;;;18.13;14.93;;;;;;;19.50;100.00;100369.88;10175820;29;20020;-86
2022/06/24 09:42:57;;;;;;;20.27;14.13;;;;;;;19.85;100.00;100381.09;10142162;29;20048;-85
2022/06/24 09:48:00;;;;;;;17.17;13.30;;;;;;;20.67;100.00;100495.81;10129144;29;20151;-86
2022/06/24 09:53:03;;;;;;;14.27;12.13;;;;;;;20.42;100.00;100435.13;10142847;28;20452;-87
2022/06/24 09:58:04;;;;;;;15.68;10.65;;;;;;;19.70;100.00;100273.50;10088620;28;20040;-88
2022/06/24 10:03:07;;;;;;;16.50;10.25;;;;;;;20.00;100.00;100329.47;10094506;29;20043;-86
2022/06/24 10:08:16;;;;;;;13.43;10.70;;;;;;;20.84;100.00;100440.97;10085535;29;20036;-87
2022/06/24 10:13:27;;;;;;;13.30;10.57;;;;;;;19.87;100.00;100258.66;10115071;29;20036;-88
2022/06/24 10:18:37;;;;;;;12.13;10.23;;;;;;;21.21;100.00;100379.72;10148170;29;20032;-88
2022/06/24 10:23:43;;;;;;;12.45;9.52;;;;;;;21.66;100.00;100368.72;10115779;29;20035;-86
2022/06/24 10:29:19;;;;;;;14.00;9.07;;;;;;;22.80;100.00;100493.88;10138733;29;20056;-87
2022/06/24 10:34:29;;;;;;;14.35;10.50;;;;;;;22.45;100.00;100472.63;10112117;29;20131;-87
2022/06/24 10:39:34;;;;;;;16.45;10.13;;;;;;;21.80;100.00;100477.72;10152712;29;20040;-88
2022/06/24 10:44:36;;;;;;;12.15;10.05;;;;;;;20.63;100.00;100370.94;10105586;29;25046;-86
2022/06/24 10:49:52;;;;;;;13.18;10.45;;;;;;;21.32;100.00;100509.78;10152771;29;20124;-89
2022/06/24 11:00:26;;;;;;;8.73;6.80;;;;;;;20.18;100.00;100433.66;10166052;29;20048;-86
2022/06/24 11:05:29;;;;;;;6.00;2.15;;;;;;;19.38;100.00;100514.84;10143131;29;20495;-88
2022/06/24 11:10:31;;;;;;;16.90;2.95;;;;;;;18.22;100.00;100454.28;10145409;29;20100;-89
2022/06/24 11:15:34;;;;;;;6.90;1.65;;;;;;;18.53;100.00;100604.03;10115264;29;20068;-89
2022/06/24 11:20:39;;;;;;;4.07;1.10;;;;;;;17.42;100.00;100487.22;10166445;29;20070;-87
2022/06/24 11:25:46;;;;;;;6.45;1.63;;;;;;;16.44;100.00;100352.03;10107330;29;20032;-87
2022/06/24 11:30:47;;;;;;;5.03;1.20;;;;;;;16.99;100.00;100484.75;10155689;29;20056;-86
2022/06/24 11:35:48;;;;;;;4.97;1.17;;;;;;;16.53;100.00;100432.72;10108264;29;20063;-86
2022/06/24 11:40:49;;;;;;;11.05;1.17;;;;;;;17.26;100.00;100538.72;10108506;29;20057;-86
2022/06/24 11:45:50;;;;;;;3.50;1.10;;;;;;;17.29;100.00;100564.00;10122291;29;20029;-87
2022/06/24 11:50:53;;;;;;;6.82;2.30;;;;;;;16.69;100.00;100475.78;10106912;29;20059;-85
2022/06/24 11:55:54;;;;;;;13.07;7.45;;;;;;;17.42;100.00;100597.72;10127823;29;20095;-86
2022/06/24 12:00:54;;;;;;;13.55;8.93;;;;;;;16.54;100.00;100420.50;10142852;29;20103;-85
2022/06/24 12:05:55;;;;;;;18.05;9.98;;;;;;;16.79;100.00;100480.34;10150197;29;20087;-85
2022/06/24 12:10:55;;;;;;;12.40;9.00;;;;;;;16.77;100.00;100449.25;10109063;29;20036;-85
2022/06/24 12:15:56;;;;;;;11.82;8.40;;;;;;;16.55;100.00;100402.66;10176594;29;20400;-85
2022/06/24 12:21:07;;;;;;;12.65;8.75;;;;;;;16.66;100.00;100419.97;10148127;29;20413;-86
2022/06/24 12:26:15;;;;;;;7.45;6.55;;;;;;;17.42;100.00;100548.44;10132274;29;20061;-85
2022/06/24 12:31:16;;;;;;;7.15;5.15;;;;;;;16.76;100.00;100439.25;10154764;28;20040;-85
2022/06/24 12:36:18;;;;;;;5.60;3.75;;;;;;;17.09;100.00;100459.50;10121017;29;20111;-85
2022/06/24 12:41:20;;;;;;;10.10;5.10;;;;;;;17.79;100.00;100596.69;10118471;29;20056;-86
2022/06/24 12:46:24;;;;;;;4.78;3.55;;;;;;;16.52;100.00;100408.84;10158270;29;20633;-86
2022/06/24 12:51:25;;;;;;;6.13;5.10;;;;;;;17.45;100.00;100491.34;10131418;29;20096;-86
2022/06/24 12:56:30;;;;;;;9.80;6.72;;;;;;;17.80;100.00;100478.63;10134408;29;20024;-86
2022/06/24 13:01:39;;;;;;;4.43;3.77;;;;;;;17.77;100.00;100482.03;10107989;28;20040;-86
2022/06/24 13:06:40;;;;;;;5.57;4.20;;;;;;;17.84;100.00;100471.31;10182074;28;20023;-86
2022/06/24 13:11:40;;;;;;;4.22;3.33;;;;;;;18.33;100.00;100550.44;10152370;28;20039;-86
2022/06/24 13:16:41;;;;;;;6.10;3.45;;;;;;;18.29;100.00;100532.69;10104544;29;20051;-85
2022/06/24 13:21:44;;;;;;;4.43;3.45;;;;;;;18.38;100.00;100540.31;10118760;29;20052;-88
2022/06/24 13:26:46;;;;;;;3.88;3.00;;;;;;;17.89;100.00;100426.63;10103183;29;20494;-87
2022/06/24 13:31:47;;;;;;;3.67;2.90;;;;;;;18.30;100.00;100441.56;10100135;29;20055;-88
2022/06/24 13:36:47;;;;;;;3.10;2.50;;;;;;;18.25;100.00;100397.94;10115995;29;20036;-87
2022/06/24 13:41:48;;;;;;;4.65;2.97;;;;;;;18.27;100.00;100397.59;10146789;29;20043;-87
2022/06/24 13:46:48;;;;;;;4.40;3.00;;;;;;;18.92;100.00;100486.25;10131570;29;20484;-86
2022/06/24 13:51:49;;;;;;;4.72;3.00;;;;;;;19.06;100.00;100466.63;10123773;29;20104;-86
2022/06/24 13:56:50;;;;;;;5.65;3.35;;;;;;;19.67;100.00;100463.19;10140320;29;20031;-86
2022/06/24 14:01:51;;;;;;;4.68;2.92;;;;;;;20.55;100.00;100509.63;10147625;29;20392;-86
2022/06/24 14:06:51;;;;;;;4.13;2.53;;;;;;;20.61;100.00;100371.28;10155954;29;20040;-87
2022/06/24 14:11:52;;;;;;;3.55;2.58;;;;;;;22.80;100.00;100586.50;10156526;29;20400;-87
2022/06/24 14:16:52;;;;;;;3.60;2.60;;;;;;;22.67;100.00;100538.75;10155795;29;20063;-88
2022/06/24 14:21:53;;;;;;;3.15;2.30;;;;;;;23.25;100.00;100611.03;10138497;29;20378;-87
2022/06/24 14:26:53;;;;;;;2.75;2.22;;;;;;;21.67;100.00;100417.19;10132203;29;22134;-86
2022/06/24 14:31:57;;;;;;;3.30;2.72;;;;;;;21.65;100.00;100473.53;10136141;29;20131;-87
2022/06/24 14:36:59;;;;;;;3.70;2.50;;;;;;;22.22;100.00;100620.75;10103693;29;20035;-87
2022/06/24 14:41:59;;;;;;;3.55;3.25;;;;;;;21.48;100.00;100452.06;10143913;29;20104;-87
2022/06/24 14:47:01;;;;;;;5.57;3.05;;;;;;;22.26;100.00;100501.19;10091972;29;20033;-87
2022/06/24 14:52:01;;;;;;;3.58;3.00;;;;;;;23.09;100.00;100479.72;10082816;29;20051;-88
2022/06/24 14:57:02;;;;;;;5.53;3.97;;;;;;;23.43;100.00;100407.41;10106733;29;20378;-88
2022/06/24 15:02:03;;;;;;;4.80;4.20;;;;;;;25.60;100.00;100627.19;10082003;29;20031;-87
2022/06/24 15:07:09;;;;;;;5.30;4.13;;;;;;;24.63;100.00;100435.88;10138989;29;20076;-89
2022/06/24 15:12:20;;;;;;;6.13;4.30;;;;;;;26.05;100.00;100549.78;10123035;29;20044;-89
2022/06/24 15:17:20;;;;;;;6.43;4.10;;;;;;;25.89;100.00;100431.34;10114739;29;20107;-89
2022/06/24 15:22:24;;;;;;;7.13;4.65;;;;;;;26.10;100.00;100469.66;10131644;29;22370;-89
2022/06/24 15:27:25;;;;;;;8.05;5.07;;;;;;;27.21;100.00;100550.16;10113889;29;20040;-91
2022/06/24 15:32:25;;;;;;;6.22;4.65;;;;;;;27.41;100.00;100437.84;10135600;29;20067;-88
2022/06/24 15:37:28;;;;;;;8.05;4.63;;;;;;;27.68;93.09;100376.44;10166078;29;20095;-88
2022/06/24 15:42:36;;;;;;;6.60;5.75;;;;;;;28.80;91.71;100528.75;10170320;29;20033;-88
2022/06/24 15:47:37;;;;;;;5.72;4.75;;;;;;;28.54;88.48;100378.34;10092764;29;20059;-88
2022/06/24 15:52:37;;;;;;;5.72;5.07;;;;;;;28.65;89.15;100377.63;10116027;28;20215;-89
2022/06/24 15:57:38;;;;;;;5.80;5.22;;;;;;;29.31;85.44;100420.31;10108843;29;20052;-88
2022/06/24 16:02:39;;;;;;;6.13;5.18;;;;;;;29.51;81.84;100398.19;10150867;29;20048;-88
2022/06/24 16:07:39;;;;;;;7.47;6.00;;;;;;;29.47;84.15;100480.38;10139372;29;20031;-88
2022/06/24 16:12:40;;;;;;;6.05;4.57;;;;;;;28.85;84.34;100437.72;10147398;28;20036;-88
2022/06/24 16:17:40;;;;;;;10.85;5.70;;;;;;;28.91;85.13;100385.16;10135819;29;20098;-91
2022/06/24 16:22:41;;;;;;;6.25;4.97;;;;;;;29.00;81.37;100325.31;10094033;29;20024;-89
2022/06/24 16:33:04;;;;;;;7.95;5.70;;;;;;;27.85;79.38;100352.44;10112990;29;20046;-89
2022/06/24 16:38:13;;;;;;;7.95;6.38;;;;;;;26.20;91.12;100418.28;10098640;29;21360;-90
2022/06/24 16:43:21;;;;;;;9.02;6.40;;;;;;;25.25;100.00;100362.22;10095246;29;20032;-90
2022/06/24 16:48:31;;;;;;;9.85;7.55;;;;;;;24.49;100.00;100384.78;10074328;29;20038;-90
2022/06/24 16:54:03;;;;;;;7.57;6.78;;;;;;;23.79;100.00;100304.53;9992819;29;20410;-90
2022/06/24 16:59:03;;;;;;;8.05;6.75;;;;;;;23.68;100.00;100382.06;10112163;29;20055;-93
2022/06/24 17:04:09;;;;;;;9.10;6.40;;;;;;;22.98;100.00;100305.25;10067416;29;20094;-89
2022/06/24 17:09:12;;;;;;;8.10;7.00;;;;;;;23.69;100.00;100468.00;10077229;29;20041;-89
2022/06/24 17:14:13;;;;;;;11.52;7.18;;;;;;;22.89;100.00;100449.72;10109126;29;20099;-88
2022/06/24 17:19:14;;;;;;;8.82;6.78;;;;;;;22.51;100.00;100498.47;10015673;29;20067;-89
2022/06/24 17:24:31;;;;;;;8.63;7.68;;;;;;;21.31;100.00;100368.13;10066231;29;20060;-90
2022/06/24 17:29:46;;;;;;;8.68;7.78;;;;;;;21.34;100.00;100398.25;10015847;29;20068;-91
2022/06/24 17:35:08;;;;;;;9.00;8.10;;;;;;;20.90;100.00;100356.50;10055121;29;20447;-90
2022/06/24 17:40:12;;;;;;;9.98;7.15;;;;;;;21.46;100.00;100495.59;10045707;29;20416;-90
2022/06/24 17:45:21;;;;;;;8.27;6.32;;;;;;;20.49;100.00;100315.22;10067634;29;20023;-93
2022/06/24 17:50:24;;;;;;;7.88;7.18;;;;;;;21.43;100.00;100519.47;10050190;29;20055;-93
2022/06/24 17:55:29;;;;;;;8.77;7.00;;;;;;;21.09;100.00;100451.25;10046175;29;20077;-95
2022/06/24 18:00:32;;;;;;;8.70;6.72;;;;;;;22.10;100.00;100641.09;10084793;29;20052;-95
2022/06/24 18:05:33;;;;;;;7.38;6.72;;;;;;;21.31;100.00;100531.34;10088740;29;20031;-91
2022/06/24 18:10:36;;;;;;;7.85;6.47;;;;;;;21.33;100.00;100573.00;10041260;29;20039;-92
2022/06/24 18:15:40;;;;;;;7.45;6.45;;;;;;;21.53;100.00;100656.31;10048438;29;20045;-90
2022/06/24 18:20:44;;;;;;;11.65;7.55;;;;;;;20.76;100.00;100565.72;10041925;29;20032;-91
2022/06/24 18:25:45;;;;;;;8.52;7.72;;;;;;;20.42;100.00;100532.97;10093988;29;20033;-88
2022/06/24 18:30:46;;;;;;;10.00;7.65;;;;;;;20.40;100.00;100538.06;10133907;29;20088;-89
2022/06/24 18:35:46;;;;;;;8.88;7.70;;;;;;;19.63;100.00;100432.28;10130659;29;20498;-88
2022/06/24 18:40:47;;;;;;;11.25;10.15;;;;;;;20.39;100.00;100542.84;10123848;29;20052;-88
2022/06/24 18:45:47;;;;;;;13.85;12.48;;;;;;;20.21;100.00;100533.63;10114648;29;20021;-88
2022/06/24 18:50:49;;;;;;;13.93;12.52;;;;;;;20.26;100.00;100577.38;10138297;29;20048;-88
2022/06/24 18:55:50;;;;;;;16.65;14.93;;;;;;;19.66;100.00;100481.09;10117505;29;20584;-89
2022/06/24 19:00:50;;;;;;;16.13;14.55;;;;;;;19.09;100.00;100442.81;10152706;29;20051;-88
2022/06/24 19:05:52;;;;;;;15.75;14.20;;;;;;;19.31;100.00;100514.50;10120322;29;20096;-88
2022/06/24 19:10:55;;;;;;;15.82;14.27;;;;;;;19.52;100.00;100553.81;10114624;29;20043;-88
2022/06/24 19:15:55;;;;;;;17.33;15.52;;;;;;;20.08;100.00;100691.91;10144270;29;20036;-89
2022/06/24 19:20:57;;;;;;;21.10;15.40;;;;;;;18.67;100.00;100482.13;10128993;29;20122;-89
2022/06/24 19:25:57;;;;;;;21.90;16.70;;;;;;;18.47;100.00;100461.16;10129017;29;20361;-88
2022/06/24 19:30:58;;;;;;;18.23;16.05;;;;;;;19.02;100.00;100581.97;10131218;29;20044;-89
2022/06/24 19:35:58;;;;;;;18.67;16.73;;;;;;;18.84;100.00;100592.19;10137380;29;20036;-88
2022/06/24 19:40:59;;;;;;;19.58;17.63;;;;;;;18.75;100.00;100614.41;10164435;29;20059;-89
2022/06/24 19:45:59;;;;;;;19.10;17.25;;;;;;;19.53;100.00;100743.38;10157338;28;20027;-89
2022/06/24 19:51:06;;;;;;;21.42;17.10;;;;;;;17.75;100.00;100485.09;10112945;29;20560;-94
2022/06/24 19:56:06;;;;;;;19.75;17.63;;;;;;;18.30;100.00;100617.94;10123683;29;20036;-88
2022/06/24 20:01:08;;;;;;;19.02;17.13;;;;;;;18.55;100.00;100668.66;10124733;29;20443;-89
2022/06/24 20:06:08;;;;;;;19.88;17.80;;;;;;;17.78;100.00;100572.78;10131823;29;20111;-92
2022/06/24 20:12:00;;;;;;;20.70;18.13;;;;;;;18.14;100.00;100631.34;10092721;29;20349;-90
2022/06/24 20:16:35;;;;;;;20.48;18.23;;;;;;;17.95;100.00;100600.84;10133088;29;20034;-88
2022/06/24 20:21:36;;;;;;;23.42;19.83;;;;;;;18.45;100.00;100713.50;10135953;29;20032;-89
2022/06/24 20:26:42;;;;;;;23.88;20.00;;;;;;;17.51;100.00;100574.44;10140216;29;20032;-89
2022/06/24 20:31:44;;;;;;;24.27;20.83;;;;;;;18.02;100.00;100666.44;10131896;29;20044;-89
2022/06/24 20:36:46;;;;;;;23.98;21.10;;;;;;;17.85;100.00;100676.25;10140613;28;20086;-90
2022/06/24 20:41:50;;;;;;;23.77;20.80;;;;;;;17.77;100.00;100646.28;10091413;29;20040;-92
2022/06/24 20:47:29;;;;;;;23.17;20.75;;;;;;;18.58;100.00;100781.53;10018047;29;20040;-88
2022/06/24 20:52:32;;;;;;;22.00;18.20;;;;;;;18.19;100.00;100711.25;10161254;29;20131;-92
2022/06/24 20:58:54;;;;;;;18.20;16.38;;;;;;;18.79;100.00;100804.25;10035056;29;20064;-89
2022/06/24 21:03:37;;;;;;;17.73;16.05;;;;;;;17.50;100.00;100588.66;10118764;28;20048;-93
2022/06/24 21:08:40;;;;;;;18.45;16.55;;;;;;;18.76;100.00;100781.41;10033539;29;20409;-92
2022/06/24 21:14:44;;;;;;;17.77;15.98;;;;;;;18.87;100.00;100784.00;10094412;28;20126;-89
2022/06/24 21:19:45;;;;;;;21.55;17.65;;;;;;;17.81;100.00;100655.69;10094623;28;20036;-90
2022/06/24 21:24:52;;;;;;;23.45;18.85;;;;;;;17.41;100.00;100574.63;10109038;28;20528;-90
2022/06/24 21:29:56;;;;;;;19.38;17.33;;;;;;;18.07;100.00;100719.28;10095550;29;20082;-90
2022/06/24 21:35:01;;;;;;;20.38;18.23;;;;;;;17.36;100.00;100610.88;10114277;29;20063;-90
2022/06/24 21:40:06;;;;;;;21.00;18.13;;;;;;;18.01;100.00;100723.31;10119238;29;20064;-91
2022/06/24 21:45:08;;;;;;;18.92;16.95;;;;;;;18.45;100.00;100780.41;9986893;28;20755;-91
2022/06/24 21:50:27;;;;;;;15.30;13.82;;;;;;;18.35;100.00;100785.06;10078449;29;20047;-90
2022/06/24 21:55:34;;;;;;;13.25;12.02;;;;;;;16.78;100.00;100561.25;10054405;29;20054;-88
2022/06/24 22:00:46;;;;;;;;;;;;;;;18.25;100.00;100779.69;10076939;29;20073;-87
2022/06/24 22:05:59;;;;;;;10.90;9.65;;;;;;;17.29;100.00;100638.28;10054997;29;19911;-89
2022/06/24 22:11:07;;;;;;;10.70;8.38;;;;;;;17.24;100.00;100630.03;10037820;29;20052;-88
2022/06/24 22:16:20;;;;;;;;;;;;;;;;;;;;;
2022/06/24 22:21:22;;;;;;;8.48;7.53;;;;;;;17.15;100.00;100646.59;10081558;29;20023;-89
2022/06/24 22:26:24;;;;;;;12.43;8.80;;;;;;;17.10;100.00;100658.63;10064694;29;20504;-88
2022/06/24 22:31:26;;;;;;;10.07;9.07;;;;;;;17.11;100.00;100645.53;10089364;29;20463;-89
2022/06/24 22:36:29;;;;;;;11.10;9.85;;;;;;;16.72;100.00;100580.81;10115984;28;20110;-87
2022/06/24 22:41:34;;;;;;;11.60;10.50;;;;;;;17.58;100.00;100724.31;10091796;28;20032;-88
2022/06/24 22:46:44;;;;;;;11.57;10.48;;;;;;;17.55;100.00;100724.94;10042852;29;20047;-87
2022/06/24 22:51:45;;;;;;;11.07;9.98;;;;;;;17.59;100.00;100752.97;10125281;28;20107;-88
2022/06/24 22:57:10;;;;;;;10.80;9.75;;;;;;;16.87;100.00;100627.03;10064662;29;20598;-89
2022/06/24 23:02:11;;;;;;;11.30;8.57;;;;;;;16.56;100.00;100615.53;10130482;29;20064;-89
2022/06/24 23:07:39;;;;;;;9.90;8.50;;;;;;;16.81;100.00;100667.16;10076315;28;20312;-87
2022/06/24 23:12:40;;;;;;;11.70;8.63;;;;;;;17.22;100.00;100736.06;10084056;29;20047;-87